Tarboro, South Carolina
Current Conditions -  °F | °C
As of 12:56 AM on Wednesday 28 Jan 2015 (Local Time) from KNBC Reporting Station
Clear Clear  
Wind Chill: 35°   Ceiling: Unl
Heat Index: 41°   Visibility: 10mi
Dew Point: 31°   Wind: 9mph
Humidity: 67%   Direction: 330°NNW
Pressure: 30.04"   Gusts: NA
Location:  32.4819°N, 81.1158°W
Report Text: KNBC 280556Z AUTO 33008KT 10SM CLR 05/M01 A3004 RMK AO2 SLP174 T00501006 10067 20017 51016 $
Loading
Personal Weather Stations






























Interactive Weather Map New forecast layout! Learn more

10-Day Weather Forecast

Advertisements
Track Severe Weather on mobile